sensor_id;sensor_type;location;lat;lon;timestamp;P1;durP1;ratioP1;P2;durP2;ratioP2
67344;SDS011;54230;52.402;6.276;2023-01-15T00:00:00;10.1;;;1.6;;
67344;SDS011;54230;52.402;6.276;2023-01-15T00:05:00;7.8;;;1.6;;
67344;SDS011;54230;52.402;6.276;2023-01-15T00:10:00;6.4;;;1.8;;
67344;SDS011;54230;52.402;6.276;2023-01-15T00:15:00;9.2;;;1.7;;
67344;SDS011;54230;52.402;6.276;2023-01-15T00:20:00;6.3;;;1.6;;
67344;SDS011;54230;52.402;6.276;2023-01-15T00:25:00;9.0;;;1.8;;
67344;SDS011;54230;52.402;6.276;2023-01-15T00:30:00;8.8;;;1.6;;
67344;SDS011;54230;52.402;6.276;2023-01-15T00:35:00;7.9;;;1.7;;
67344;SDS011;54230;52.402;6.276;2023-01-15T00:40:00;11.9;;;1.9;;
67344;SDS011;54230;52.402;6.276;2023-01-15T00:45:00;9.1;;;1.4;;
67344;SDS011;54230;52.402;6.276;2023-01-15T00:50:00;10.9;;;1.7;;
67344;SDS011;54230;52.402;6.276;2023-01-15T00:55:00;7.5;;;1.9;;
67344;SDS011;54230;52.402;6.276;2023-01-15T01:00:00;10.1;;;1.8;;
67344;SDS011;54230;52.402;6.276;2023-01-15T01:05:00;6.1;;;1.6;;
67344;SDS011;54230;52.402;6.276;2023-01-15T01:10:00;6.3;;;1.6;;
67344;SDS011;54230;52.402;6.276;2023-01-15T01:15:00;9.3;;;1.9;;
67344;SDS011;54230;52.402;6.276;2023-01-15T01:20:00;6.5;;;1.4;;
67344;SDS011;54230;52.402;6.276;2023-01-15T01:25:00;7.3;;;1.5;;
67344;SDS011;54230;52.402;6.276;2023-01-15T01:30:00;10.5;;;1.6;;
67344;SDS011;54230;52.402;6.276;2023-01-15T01:35:00;9.6;;;1.5;;
67344;SDS011;54230;52.402;6.276;2023-01-15T01:40:00;10.1;;;1.7;;
67344;SDS011;54230;52.402;6.276;2023-01-15T01:45:02;9.9;;;1.8;;
67344;SDS011;54230;52.402;6.276;2023-01-15T01:50:02;7.4;;;1.6;;
67344;SDS011;54230;52.402;6.276;2023-01-15T01:55:00;10.6;;;1.7;;
67344;SDS011;54230;52.402;6.276;2023-01-15T02:00:00;8.7;;;1.7;;
67344;SDS011;54230;52.402;6.276;2023-01-15T02:05:00;13.2;;;1.7;;
67344;SDS011;54230;52.402;6.276;2023-01-15T02:10:00;8.8;;;1.6;;
67344;SDS011;54230;52.402;6.276;2023-01-15T02:15:02;11.0;;;1.9;;
67344;SDS011;54230;52.402;6.276;2023-01-15T02:20:05;9.9;;;1.9;;
67344;SDS011;54230;52.402;6.276;2023-01-15T02:25:03;12.5;;;1.7;;
67344;SDS011;54230;52.402;6.276;2023-01-15T02:30:01;10.5;;;1.6;;
67344;SDS011;54230;52.402;6.276;2023-01-15T02:35:02;15.3;;;1.9;;
67344;SDS011;54230;52.402;6.276;2023-01-15T02:40:00;13.7;;;2.0;;
67344;SDS011;54230;52.402;6.276;2023-01-15T02:45:00;11.9;;;2.0;;
67344;SDS011;54230;52.402;6.276;2023-01-15T02:50:01;8.4;;;1.5;;
67344;SDS011;54230;52.402;6.276;2023-01-15T02:55:02;13.5;;;2.2;;
67344;SDS011;54230;52.402;6.276;2023-01-15T03:00:00;11.8;;;2.0;;
67344;SDS011;54230;52.402;6.276;2023-01-15T03:05:01;14.4;;;1.5;;
67344;SDS011;54230;52.402;6.276;2023-01-15T03:10:00;7.3;;;1.7;;
67344;SDS011;54230;52.402;6.276;2023-01-15T03:15:02;10.9;;;1.8;;
67344;SDS011;54230;52.402;6.276;2023-01-15T03:20:02;11.3;;;1.6;;
67344;SDS011;54230;52.402;6.276;2023-01-15T03:25:02;12.9;;;2.3;;
67344;SDS011;54230;52.402;6.276;2023-01-15T03:30:02;9.4;;;1.4;;
67344;SDS011;54230;52.402;6.276;2023-01-15T03:35:00;8.8;;;1.4;;
67344;SDS011;54230;52.402;6.276;2023-01-15T03:40:00;11.5;;;1.7;;
67344;SDS011;54230;52.402;6.276;2023-01-15T03:45:01;9.0;;;1.7;;
67344;SDS011;54230;52.402;6.276;2023-01-15T03:50:02;11.5;;;2.0;;
67344;SDS011;54230;52.402;6.276;2023-01-15T03:55:03;12.1;;;1.8;;
67344;SDS011;54230;52.402;6.276;2023-01-15T04:00:03;10.9;;;1.8;;
67344;SDS011;54230;52.402;6.276;2023-01-15T04:05:00;8.0;;;1.5;;
67344;SDS011;54230;52.402;6.276;2023-01-15T04:10:00;9.4;;;1.8;;
67344;SDS011;54230;52.402;6.276;2023-01-15T04:15:00;11.1;;;1.4;;
67344;SDS011;54230;52.402;6.276;2023-01-15T04:20:00;8.1;;;1.6;;
67344;SDS011;54230;52.402;6.276;2023-01-15T04:25:00;9.0;;;1.5;;
67344;SDS011;54230;52.402;6.276;2023-01-15T04:30:00;13.0;;;1.8;;
67344;SDS011;54230;52.402;6.276;2023-01-15T04:35:00;8.9;;;1.2;;
67344;SDS011;54230;52.402;6.276;2023-01-15T04:40:00;11.2;;;1.7;;
67344;SDS011;54230;52.402;6.276;2023-01-15T04:45:00;9.2;;;1.6;;
67344;SDS011;54230;52.402;6.276;2023-01-15T04:50:00;9.2;;;1.6;;
67344;SDS011;54230;52.402;6.276;2023-01-15T04:55:00;10.9;;;1.9;;
67344;SDS011;54230;52.402;6.276;2023-01-15T05:00:00;9.7;;;1.7;;
67344;SDS011;54230;52.402;6.276;2023-01-15T05:05:00;8.6;;;1.5;;
67344;SDS011;54230;52.402;6.276;2023-01-15T05:10:00;8.7;;;1.6;;
67344;SDS011;54230;52.402;6.276;2023-01-15T05:15:00;9.1;;;1.5;;
67344;SDS011;54230;52.402;6.276;2023-01-15T05:20:00;6.7;;;1.3;;
67344;SDS011;54230;52.402;6.276;2023-01-15T05:25:00;9.3;;;1.6;;
67344;SDS011;54230;52.402;6.276;2023-01-15T05:30:00;11.5;;;2.0;;
67344;SDS011;54230;52.402;6.276;2023-01-15T05:35:00;10.0;;;2.0;;
67344;SDS011;54230;52.402;6.276;2023-01-15T05:40:00;8.5;;;1.7;;
67344;SDS011;54230;52.402;6.276;2023-01-15T05:45:00;11.4;;;1.5;;
67344;SDS011;54230;52.402;6.276;2023-01-15T05:50:00;10.7;;;1.7;;
67344;SDS011;54230;52.402;6.276;2023-01-15T05:55:00;12.8;;;1.8;;
67344;SDS011;54230;52.402;6.276;2023-01-15T06:00:00;6.0;;;1.6;;
67344;SDS011;54230;52.402;6.276;2023-01-15T06:05:00;4.3;;;1.3;;
67344;SDS011;54230;52.402;6.276;2023-01-15T06:10:00;5.9;;;1.5;;
67344;SDS011;54230;52.402;6.276;2023-01-15T06:15:00;10.1;;;1.5;;
67344;SDS011;54230;52.402;6.276;2023-01-15T06:20:00;8.7;;;1.8;;
67344;SDS011;54230;52.402;6.276;2023-01-15T06:25:00;8.6;;;1.7;;
67344;SDS011;54230;52.402;6.276;2023-01-15T06:30:00;6.6;;;1.7;;
67344;SDS011;54230;52.402;6.276;2023-01-15T06:35:00;9.5;;;1.9;;
67344;SDS011;54230;52.402;6.276;2023-01-15T06:40:00;8.5;;;1.8;;
67344;SDS011;54230;52.402;6.276;2023-01-15T06:45:00;7.5;;;1.5;;
67344;SDS011;54230;52.402;6.276;2023-01-15T06:50:00;11.6;;;1.8;;
67344;SDS011;54230;52.402;6.276;2023-01-15T06:55:00;6.8;;;1.4;;
67344;SDS011;54230;52.402;6.276;2023-01-15T07:00:00;7.4;;;1.8;;
67344;SDS011;54230;52.402;6.276;2023-01-15T07:05:00;11.7;;;2.0;;
67344;SDS011;54230;52.402;6.276;2023-01-15T07:10:00;10.2;;;1.8;;
67344;SDS011;54230;52.402;6.276;2023-01-15T07:15:00;9.0;;;1.6;;
67344;SDS011;54230;52.402;6.276;2023-01-15T07:20:00;8.6;;;1.6;;
67344;SDS011;54230;52.402;6.276;2023-01-15T07:25:00;9.0;;;1.7;;
67344;SDS011;54230;52.402;6.276;2023-01-15T07:30:00;8.6;;;1.5;;
67344;SDS011;54230;52.402;6.276;2023-01-15T07:35:00;8.7;;;1.6;;
67344;SDS011;54230;52.402;6.276;2023-01-15T07:40:00;7.6;;;1.6;;
67344;SDS011;54230;52.402;6.276;2023-01-15T07:45:00;6.3;;;1.5;;
67344;SDS011;54230;52.402;6.276;2023-01-15T07:50:00;6.9;;;1.5;;
67344;SDS011;54230;52.402;6.276;2023-01-15T07:55:00;6.0;;;1.3;;
67344;SDS011;54230;52.402;6.276;2023-01-15T08:00:00;5.7;;;1.5;;
67344;SDS011;54230;52.402;6.276;2023-01-15T08:05:00;6.8;;;1.3;;
67344;SDS011;54230;52.402;6.276;2023-01-15T08:10:00;8.0;;;1.2;;
67344;SDS011;54230;52.402;6.276;2023-01-15T08:15:00;7.3;;;1.3;;
67344;SDS011;54230;52.402;6.276;2023-01-15T08:20:00;8.3;;;1.7;;
67344;SDS011;54230;52.402;6.276;2023-01-15T08:25:00;8.2;;;1.4;;
67344;SDS011;54230;52.402;6.276;2023-01-15T08:30:00;7.3;;;1.4;;
67344;SDS011;54230;52.402;6.276;2023-01-15T08:35:00;9.0;;;1.6;;
67344;SDS011;54230;52.402;6.276;2023-01-15T08:40:00;8.8;;;1.4;;
67344;SDS011;54230;52.402;6.276;2023-01-15T08:45:00;7.3;;;1.2;;
67344;SDS011;54230;52.402;6.276;2023-01-15T08:50:00;9.6;;;1.6;;
67344;SDS011;54230;52.402;6.276;2023-01-15T08:55:00;7.0;;;1.8;;
67344;SDS011;54230;52.402;6.276;2023-01-15T09:00:00;8.2;;;1.6;;
67344;SDS011;54230;52.402;6.276;2023-01-15T09:05:00;8.7;;;1.3;;
67344;SDS011;54230;52.402;6.276;2023-01-15T09:10:00;8.2;;;1.6;;
67344;SDS011;54230;52.402;6.276;2023-01-15T09:15:00;9.6;;;1.9;;
67344;SDS011;54230;52.402;6.276;2023-01-15T09:20:00;7.5;;;1.2;;
67344;SDS011;54230;52.402;6.276;2023-01-15T09:25:00;8.3;;;1.7;;
67344;SDS011;54230;52.402;6.276;2023-01-15T09:30:00;7.9;;;1.5;;
67344;SDS011;54230;52.402;6.276;2023-01-15T09:35:00;11.5;;;1.5;;
67344;SDS011;54230;52.402;6.276;2023-01-15T09:40:00;8.0;;;1.4;;
67344;SDS011;54230;52.402;6.276;2023-01-15T09:45:05;8.1;;;1.5;;
67344;SDS011;54230;52.402;6.276;2023-01-15T09:50:03;8.6;;;1.9;;
67344;SDS011;54230;52.402;6.276;2023-01-15T09:55:02;9.9;;;1.6;;
67344;SDS011;54230;52.402;6.276;2023-01-15T10:00:00;8.5;;;1.7;;
67344;SDS011;54230;52.402;6.276;2023-01-15T10:05:01;7.7;;;1.5;;
67344;SDS011;54230;52.402;6.276;2023-01-15T10:10:00;8.2;;;1.6;;
67344;SDS011;54230;52.402;6.276;2023-01-15T10:15:02;6.9;;;1.3;;
67344;SDS011;54230;52.402;6.276;2023-01-15T10:20:00;8.0;;;1.5;;
67344;SDS011;54230;52.402;6.276;2023-01-15T10:25:00;7.0;;;1.2;;
67344;SDS011;54230;52.402;6.276;2023-01-15T10:30:00;8.1;;;1.7;;
67344;SDS011;54230;52.402;6.276;2023-01-15T10:40:08;11.9;;;1.9;;
67344;SDS011;54230;52.402;6.276;2023-01-15T10:45:01;6.3;;;1.6;;
67344;SDS011;54230;52.402;6.276;2023-01-15T10:50:00;8.0;;;1.5;;
67344;SDS011;54230;52.402;6.276;2023-01-15T10:55:02;8.3;;;1.9;;
67344;SDS011;54230;52.402;6.276;2023-01-15T11:00:00;12.6;;;2.0;;
67344;SDS011;54230;52.402;6.276;2023-01-15T11:05:00;9.4;;;1.8;;
67344;SDS011;54230;52.402;6.276;2023-01-15T11:10:01;9.4;;;1.6;;
67344;SDS011;54230;52.402;6.276;2023-01-15T11:15:00;10.0;;;1.9;;
67344;SDS011;54230;52.402;6.276;2023-01-15T11:20:00;14.8;;;1.7;;
67344;SDS011;54230;52.402;6.276;2023-01-15T11:25:00;10.3;;;2.1;;
67344;SDS011;54230;52.402;6.276;2023-01-15T11:30:00;11.0;;;2.3;;
67344;SDS011;54230;52.402;6.276;2023-01-15T11:35:01;8.5;;;1.7;;
67344;SDS011;54230;52.402;6.276;2023-01-15T11:40:00;11.7;;;2.3;;
67344;SDS011;54230;52.402;6.276;2023-01-15T11:45:00;10.4;;;2.2;;
67344;SDS011;54230;52.402;6.276;2023-01-15T11:50:00;8.9;;;1.7;;
67344;SDS011;54230;52.402;6.276;2023-01-15T11:55:00;9.3;;;1.7;;
67344;SDS011;54230;52.402;6.276;2023-01-15T12:00:00;7.5;;;1.5;;
67344;SDS011;54230;52.402;6.276;2023-01-15T12:05:00;8.3;;;1.7;;
67344;SDS011;54230;52.402;6.276;2023-01-15T12:10:07;10.1;;;1.9;;
67344;SDS011;54230;52.402;6.276;2023-01-15T12:15:04;9.1;;;1.9;;
67344;SDS011;54230;52.402;6.276;2023-01-15T12:20:02;11.4;;;2.0;;
67344;SDS011;54230;52.402;6.276;2023-01-15T12:25:06;10.2;;;1.9;;
67344;SDS011;54230;52.402;6.276;2023-01-15T12:30:02;10.3;;;2.1;;
67344;SDS011;54230;52.402;6.276;2023-01-15T12:35:01;7.9;;;2.2;;
67344;SDS011;54230;52.402;6.276;2023-01-15T12:40:02;8.1;;;1.8;;
67344;SDS011;54230;52.402;6.276;2023-01-15T12:45:01;6.1;;;1.7;;
67344;SDS011;54230;52.402;6.276;2023-01-15T12:50:02;8.7;;;2.1;;
67344;SDS011;54230;52.402;6.276;2023-01-15T12:55:00;11.0;;;2.1;;
67344;SDS011;54230;52.402;6.276;2023-01-15T13:00:02;9.0;;;2.1;;
67344;SDS011;54230;52.402;6.276;2023-01-15T13:05:02;11.5;;;2.6;;
67344;SDS011;54230;52.402;6.276;2023-01-15T13:10:01;8.6;;;2.0;;
67344;SDS011;54230;52.402;6.276;2023-01-15T13:15:00;7.5;;;1.8;;
67344;SDS011;54230;52.402;6.276;2023-01-15T13:20:04;6.4;;;1.8;;
67344;SDS011;54230;52.402;6.276;2023-01-15T13:25:04;7.0;;;1.6;;
67344;SDS011;54230;52.402;6.276;2023-01-15T13:30:04;10.6;;;2.1;;
67344;SDS011;54230;52.402;6.276;2023-01-15T13:35:02;6.8;;;1.7;;
67344;SDS011;54230;52.402;6.276;2023-01-15T13:40:02;9.1;;;2.2;;
67344;SDS011;54230;52.402;6.276;2023-01-15T13:45:02;8.6;;;1.9;;
67344;SDS011;54230;52.402;6.276;2023-01-15T13:50:02;5.3;;;1.6;;
67344;SDS011;54230;52.402;6.276;2023-01-15T13:55:00;7.0;;;1.8;;
67344;SDS011;54230;52.402;6.276;2023-01-15T14:00:00;8.5;;;1.9;;
67344;SDS011;54230;52.402;6.276;2023-01-15T14:05:10;9.7;;;1.9;;
67344;SDS011;54230;52.402;6.276;2023-01-15T14:10:08;9.6;;;2.1;;
67344;SDS011;54230;52.402;6.276;2023-01-15T14:15:02;8.2;;;2.0;;
67344;SDS011;54230;52.402;6.276;2023-01-15T14:20:04;7.6;;;1.7;;
67344;SDS011;54230;52.402;6.276;2023-01-15T14:25:06;10.4;;;2.1;;
67344;SDS011;54230;52.402;6.276;2023-01-15T14:30:03;8.5;;;2.1;;
67344;SDS011;54230;52.402;6.276;2023-01-15T14:35:00;9.4;;;1.8;;
67344;SDS011;54230;52.402;6.276;2023-01-15T14:40:00;9.0;;;2.1;;
67344;SDS011;54230;52.402;6.276;2023-01-15T14:45:02;9.3;;;2.1;;
67344;SDS011;54230;52.402;6.276;2023-01-15T14:50:02;5.0;;;1.5;;
67344;SDS011;54230;52.402;6.276;2023-01-15T14:55:00;10.0;;;2.3;;
67344;SDS011;54230;52.402;6.276;2023-01-15T15:00:00;9.4;;;2.0;;
67344;SDS011;54230;52.402;6.276;2023-01-15T15:05:00;10.8;;;2.2;;
67344;SDS011;54230;52.402;6.276;2023-01-15T15:10:01;11.9;;;2.2;;
67344;SDS011;54230;52.402;6.276;2023-01-15T15:15:01;10.1;;;2.2;;
67344;SDS011;54230;52.402;6.276;2023-01-15T15:20:05;12.3;;;1.8;;
67344;SDS011;54230;52.402;6.276;2023-01-15T15:25:00;5.2;;;1.4;;
67344;SDS011;54230;52.402;6.276;2023-01-15T15:30:02;7.4;;;1.5;;
67344;SDS011;54230;52.402;6.276;2023-01-15T15:35:00;5.3;;;1.2;;
67344;SDS011;54230;52.402;6.276;2023-01-15T15:40:00;6.3;;;1.5;;
67344;SDS011;54230;52.402;6.276;2023-01-15T15:45:00;6.2;;;1.4;;
67344;SDS011;54230;52.402;6.276;2023-01-15T15:50:00;6.0;;;1.3;;
67344;SDS011;54230;52.402;6.276;2023-01-15T15:55:00;6.1;;;1.2;;
67344;SDS011;54230;52.402;6.276;2023-01-15T16:00:00;7.4;;;1.1;;
67344;SDS011;54230;52.402;6.276;2023-01-15T16:05:02;5.0;;;1.0;;
67344;SDS011;54230;52.402;6.276;2023-01-15T16:10:02;4.4;;;1.2;;
67344;SDS011;54230;52.402;6.276;2023-01-15T16:15:00;3.7;;;1.2;;
67344;SDS011;54230;52.402;6.276;2023-01-15T16:20:00;4.4;;;1.3;;
67344;SDS011;54230;52.402;6.276;2023-01-15T16:25:00;4.8;;;1.3;;
67344;SDS011;54230;52.402;6.276;2023-01-15T16:30:00;8.2;;;1.4;;
67344;SDS011;54230;52.402;6.276;2023-01-15T16:35:03;6.4;;;1.4;;
67344;SDS011;54230;52.402;6.276;2023-01-15T16:40:03;5.1;;;1.4;;
67344;SDS011;54230;52.402;6.276;2023-01-15T16:45:00;6.6;;;1.5;;
67344;SDS011;54230;52.402;6.276;2023-01-15T16:55:00;5.3;;;1.4;;
67344;SDS011;54230;52.402;6.276;2023-01-15T17:00:02;4.3;;;1.4;;
67344;SDS011;54230;52.402;6.276;2023-01-15T17:05:00;5.4;;;1.4;;
67344;SDS011;54230;52.402;6.276;2023-01-15T17:10:00;4.9;;;1.3;;
67344;SDS011;54230;52.402;6.276;2023-01-15T17:20:00;3.2;;;0.9;;
67344;SDS011;54230;52.402;6.276;2023-01-15T17:25:00;3.5;;;1.3;;
67344;SDS011;54230;52.402;6.276;2023-01-15T17:30:00;4.1;;;1.2;;
67344;SDS011;54230;52.402;6.276;2023-01-15T17:35:00;3.1;;;1.1;;
67344;SDS011;54230;52.402;6.276;2023-01-15T17:40:00;2.7;;;1.1;;
67344;SDS011;54230;52.402;6.276;2023-01-15T17:45:00;4.2;;;1.1;;
67344;SDS011;54230;52.402;6.276;2023-01-15T17:50:00;3.9;;;1.2;;
67344;SDS011;54230;52.402;6.276;2023-01-15T17:55:00;4.1;;;1.1;;
67344;SDS011;54230;52.402;6.276;2023-01-15T18:00:00;2.7;;;0.9;;
67344;SDS011;54230;52.402;6.276;2023-01-15T18:05:00;2.8;;;0.9;;
67344;SDS011;54230;52.402;6.276;2023-01-15T18:10:00;2.9;;;1.2;;
67344;SDS011;54230;52.402;6.276;2023-01-15T18:15:00;5.2;;;1.5;;
67344;SDS011;54230;52.402;6.276;2023-01-15T18:20:00;4.2;;;1.6;;
67344;SDS011;54230;52.402;6.276;2023-01-15T18:25:00;4.6;;;1.9;;
67344;SDS011;54230;52.402;6.276;2023-01-15T18:30:00;6.7;;;2.2;;
67344;SDS011;54230;52.402;6.276;2023-01-15T18:35:00;6.0;;;2.2;;
67344;SDS011;54230;52.402;6.276;2023-01-15T18:40:00;6.2;;;2.6;;
67344;SDS011;54230;52.402;6.276;2023-01-15T18:45:00;8.7;;;2.9;;
67344;SDS011;54230;52.402;6.276;2023-01-15T18:50:00;10.5;;;3.4;;
67344;SDS011;54230;52.402;6.276;2023-01-15T18:55:00;12.8;;;4.0;;
67344;SDS011;54230;52.402;6.276;2023-01-15T19:00:00;11.9;;;3.6;;
67344;SDS011;54230;52.402;6.276;2023-01-15T19:05:00;11.0;;;4.0;;
67344;SDS011;54230;52.402;6.276;2023-01-15T19:10:00;11.2;;;3.6;;
67344;SDS011;54230;52.402;6.276;2023-01-15T19:15:00;9.2;;;4.0;;
67344;SDS011;54230;52.402;6.276;2023-01-15T19:20:00;10.7;;;3.3;;
67344;SDS011;54230;52.402;6.276;2023-01-15T19:25:00;7.6;;;3.0;;
67344;SDS011;54230;52.402;6.276;2023-01-15T19:30:00;9.8;;;3.2;;
67344;SDS011;54230;52.402;6.276;2023-01-15T19:35:00;7.4;;;2.7;;
67344;SDS011;54230;52.402;6.276;2023-01-15T19:40:00;6.4;;;2.5;;
67344;SDS011;54230;52.402;6.276;2023-01-15T19:45:00;6.3;;;2.3;;
67344;SDS011;54230;52.402;6.276;2023-01-15T19:50:00;6.2;;;2.2;;
67344;SDS011;54230;52.402;6.276;2023-01-15T19:55:00;7.1;;;2.2;;
67344;SDS011;54230;52.402;6.276;2023-01-15T20:00:00;8.6;;;2.2;;
67344;SDS011;54230;52.402;6.276;2023-01-15T20:05:00;6.4;;;2.1;;
67344;SDS011;54230;52.402;6.276;2023-01-15T20:10:00;3.7;;;1.8;;
67344;SDS011;54230;52.402;6.276;2023-01-15T20:15:00;5.4;;;1.9;;
67344;SDS011;54230;52.402;6.276;2023-01-15T20:20:00;4.4;;;1.9;;
67344;SDS011;54230;52.402;6.276;2023-01-15T20:25:00;6.1;;;2.1;;
67344;SDS011;54230;52.402;6.276;2023-01-15T20:30:00;5.2;;;2.0;;
67344;SDS011;54230;52.402;6.276;2023-01-15T20:35:00;6.2;;;2.0;;
67344;SDS011;54230;52.402;6.276;2023-01-15T20:40:00;6.2;;;2.4;;
67344;SDS011;54230;52.402;6.276;2023-01-15T20:45:00;7.0;;;2.1;;
67344;SDS011;54230;52.402;6.276;2023-01-15T20:50:00;5.3;;;2.1;;
67344;SDS011;54230;52.402;6.276;2023-01-15T20:55:00;8.6;;;2.4;;
67344;SDS011;54230;52.402;6.276;2023-01-15T21:00:00;5.0;;;2.0;;
67344;SDS011;54230;52.402;6.276;2023-01-15T21:05:00;5.7;;;2.1;;
67344;SDS011;54230;52.402;6.276;2023-01-15T21:10:00;4.7;;;1.9;;
67344;SDS011;54230;52.402;6.276;2023-01-15T21:15:00;6.6;;;1.9;;
67344;SDS011;54230;52.402;6.276;2023-01-15T21:20:00;4.3;;;2.0;;
67344;SDS011;54230;52.402;6.276;2023-01-15T21:25:00;6.5;;;2.3;;
67344;SDS011;54230;52.402;6.276;2023-01-15T21:30:00;4.8;;;2.0;;
67344;SDS011;54230;52.402;6.276;2023-01-15T21:35:00;5.7;;;1.9;;
67344;SDS011;54230;52.402;6.276;2023-01-15T21:40:00;5.3;;;2.0;;
67344;SDS011;54230;52.402;6.276;2023-01-15T21:45:00;5.5;;;1.8;;
67344;SDS011;54230;52.402;6.276;2023-01-15T21:50:00;5.2;;;2.2;;
67344;SDS011;54230;52.402;6.276;2023-01-15T21:55:00;7.1;;;2.3;;
67344;SDS011;54230;52.402;6.276;2023-01-15T22:00:00;5.0;;;2.3;;
67344;SDS011;54230;52.402;6.276;2023-01-15T22:05:00;5.9;;;2.5;;
67344;SDS011;54230;52.402;6.276;2023-01-15T22:10:00;7.5;;;2.4;;
67344;SDS011;54230;52.402;6.276;2023-01-15T22:15:00;8.4;;;2.5;;
67344;SDS011;54230;52.402;6.276;2023-01-15T22:20:00;6.0;;;2.7;;
67344;SDS011;54230;52.402;6.276;2023-01-15T22:25:00;8.5;;;2.7;;
67344;SDS011;54230;52.402;6.276;2023-01-15T22:30:00;8.1;;;2.9;;
67344;SDS011;54230;52.402;6.276;2023-01-15T22:35:00;7.2;;;2.5;;
67344;SDS011;54230;52.402;6.276;2023-01-15T22:40:00;7.6;;;2.5;;
67344;SDS011;54230;52.402;6.276;2023-01-15T22:45:00;6.1;;;2.7;;
67344;SDS011;54230;52.402;6.276;2023-01-15T22:50:00;8.0;;;2.7;;
67344;SDS011;54230;52.402;6.276;2023-01-15T22:55:00;10.2;;;2.7;;
67344;SDS011;54230;52.402;6.276;2023-01-15T23:00:00;7.0;;;2.4;;
67344;SDS011;54230;52.402;6.276;2023-01-15T23:05:00;8.1;;;2.8;;
67344;SDS011;54230;52.402;6.276;2023-01-15T23:10:00;7.0;;;2.5;;
67344;SDS011;54230;52.402;6.276;2023-01-15T23:15:00;7.9;;;2.6;;
67344;SDS011;54230;52.402;6.276;2023-01-15T23:20:00;7.8;;;2.5;;
67344;SDS011;54230;52.402;6.276;2023-01-15T23:25:00;6.6;;;2.5;;
67344;SDS011;54230;52.402;6.276;2023-01-15T23:30:00;5.2;;;2.2;;
67344;SDS011;54230;52.402;6.276;2023-01-15T23:35:00;7.0;;;2.3;;
67344;SDS011;54230;52.402;6.276;2023-01-15T23:40:00;6.4;;;2.3;;
67344;SDS011;54230;52.402;6.276;2023-01-15T23:45:00;7.3;;;2.0;;
67344;SDS011;54230;52.402;6.276;2023-01-15T23:50:00;7.5;;;2.3;;
67344;SDS011;54230;52.402;6.276;2023-01-15T23:55:00;6.2;;;2.4;;
